createdAt,value
2019-05-29T00:02:07.857Z,19.50
2019-05-29T00:04:33.145Z,19.50
2019-05-29T00:06:59.373Z,19.50
2019-05-29T00:09:25.718Z,19.50
2019-05-29T00:11:52.249Z,19.50
2019-05-29T00:14:26.924Z,19.50
2019-05-29T00:16:44.704Z,19.50
2019-05-29T00:19:10.930Z,19.50
2019-05-29T00:21:37.161Z,19.50
2019-05-29T00:24:03.419Z,19.50
2019-05-29T00:26:29.613Z,19.50
2019-05-29T00:28:55.840Z,19.50
2019-05-29T00:31:22.077Z,19.50
2019-05-29T00:33:49.057Z,19.50
2019-05-29T00:36:16.442Z,19.50
2019-05-29T00:38:41.601Z,19.50
2019-05-29T00:41:08.772Z,19.50
2019-05-29T00:43:34.049Z,19.50
2019-05-29T00:46:00.269Z,19.50
2019-05-29T00:48:26.503Z,19.50
2019-05-29T00:50:52.735Z,19.50
2019-05-29T00:53:18.952Z,19.50
2019-05-29T00:55:45.187Z,19.50
2019-05-29T00:58:11.341Z,19.50
2019-05-29T01:00:37.657Z,19.40
2019-05-29T01:03:03.906Z,19.50
2019-05-29T01:05:30.106Z,19.40
2019-05-29T01:07:56.328Z,19.50
2019-05-29T01:10:22.550Z,19.40
2019-05-29T01:12:48.832Z,19.40
2019-05-29T01:15:15.453Z,19.40
2019-05-29T01:17:41.260Z,19.40
2019-05-29T01:20:07.484Z,19.40
2019-05-29T01:22:33.696Z,19.40
2019-05-29T01:24:59.848Z,19.40
2019-05-29T01:27:25.997Z,19.40
2019-05-29T01:29:52.386Z,19.40
2019-05-29T01:32:19.551Z,19.40
2019-05-29T01:34:44.860Z,19.40
2019-05-29T01:37:11.072Z,19.40
2019-05-29T01:39:37.297Z,19.40
2019-05-29T01:42:03.524Z,19.40
2019-05-29T01:44:29.767Z,19.40
2019-05-29T01:46:55.989Z,19.40
2019-05-29T01:49:22.216Z,19.40
2019-05-29T01:51:48.450Z,19.40
2019-05-29T01:54:15.489Z,19.40
2019-05-29T01:56:40.928Z,19.40
2019-05-29T01:59:07.138Z,19.40
2019-05-29T02:01:33.362Z,19.30
2019-05-29T02:03:59.594Z,19.40
2019-05-29T02:06:25.820Z,19.30
2019-05-29T02:08:51.975Z,19.30
2019-05-29T02:11:19.193Z,19.30
2019-05-29T02:13:44.504Z,19.40
2019-05-29T02:16:10.734Z,19.40
2019-05-29T02:18:36.985Z,19.30
2019-05-29T02:21:03.203Z,19.30
2019-05-29T02:23:29.417Z,19.30
2019-05-29T02:25:55.659Z,19.30
2019-05-29T02:28:22.620Z,19.30
2019-05-29T02:30:48.131Z,19.30
2019-05-29T02:33:14.334Z,19.30
2019-05-29T02:35:40.568Z,19.30
2019-05-29T02:38:07.202Z,19.30
2019-05-29T02:40:34.269Z,19.30
2019-05-29T02:43:00.496Z,19.30
2019-05-29T02:45:50.269Z,19.30
2019-05-29T02:47:52.958Z,19.30
2019-05-29T02:50:19.919Z,19.30
2019-05-29T02:52:45.392Z,19.30
2019-05-29T02:55:11.627Z,19.30
2019-05-29T02:57:37.866Z,19.20
2019-05-29T03:00:04.095Z,19.30
2019-05-29T03:02:31.896Z,19.30
2019-05-29T03:04:56.948Z,19.20
2019-05-29T03:07:24.301Z,19.20
2019-05-29T03:09:49.369Z,19.20
2019-05-29T03:12:15.649Z,19.20
2019-05-29T03:14:41.870Z,19.20
2019-05-29T03:17:08.094Z,19.20
2019-05-29T03:19:34.663Z,19.20
2019-05-29T03:22:00.550Z,19.20
2019-05-29T03:24:28.529Z,19.20
2019-05-29T03:26:53.005Z,19.20
2019-05-29T03:29:19.251Z,19.20
2019-05-29T03:31:47.500Z,19.20
2019-05-29T03:34:11.715Z,19.20
2019-05-29T03:36:46.504Z,19.20
2019-05-29T03:39:04.552Z,19.20
2019-05-29T03:41:32.542Z,19.20
2019-05-29T03:43:57.008Z,19.20
2019-05-29T03:46:31.502Z,19.20
2019-05-29T03:48:49.476Z,19.20
2019-05-29T03:51:15.704Z,19.20
2019-05-29T03:53:41.860Z,19.20
2019-05-29T03:56:08.151Z,19.10
2019-05-29T03:58:35.078Z,19.10
2019-05-29T04:01:01.025Z,19.10
2019-05-29T04:03:28.841Z,19.10
2019-05-29T04:05:53.487Z,19.10
2019-05-29T04:08:19.708Z,19.10
2019-05-29T04:10:45.956Z,19.10
2019-05-29T04:13:12.196Z,19.10
2019-05-29T04:15:38.852Z,19.10
2019-05-29T04:18:04.629Z,19.10
2019-05-29T04:20:31.614Z,19.10
2019-05-29T04:22:57.102Z,19.10
2019-05-29T04:25:23.324Z,19.10
2019-05-29T04:27:49.545Z,19.10
2019-05-29T04:30:15.777Z,19.10
2019-05-29T04:32:42.002Z,19.10
2019-05-29T04:35:08.226Z,19.10
2019-05-29T04:37:34.452Z,19.10
2019-05-29T04:40:00.684Z,19.10
2019-05-29T04:42:28.892Z,19.10
2019-05-29T04:44:53.014Z,19.10
2019-05-29T04:47:19.380Z,19.10
2019-05-29T04:49:45.595Z,19.10
2019-05-29T04:52:11.830Z,19.10
2019-05-29T04:54:39.980Z,19.10
2019-05-29T04:57:04.318Z,19.10
2019-05-29T04:59:30.857Z,19.10
2019-05-29T05:01:57.148Z,19.10
2019-05-29T05:04:23.381Z,19.10
2019-05-29T05:06:49.621Z,19.10
2019-05-29T05:09:15.840Z,19.10
2019-05-29T05:11:42.080Z,19.10
2019-05-29T05:14:08.301Z,19.10
2019-05-29T05:16:35.554Z,19.10
2019-05-29T05:19:00.750Z,19.10
2019-05-29T05:21:27.002Z,19.10
2019-05-29T05:23:53.212Z,19.10
2019-05-29T05:26:19.432Z,19.10
2019-05-29T05:28:46.532Z,19.20
2019-05-29T05:31:12.305Z,19.20
2019-05-29T05:33:38.675Z,19.20
2019-05-29T05:36:04.768Z,19.20
2019-05-29T05:38:30.997Z,19.20
2019-05-29T05:40:57.221Z,19.20
2019-05-29T05:43:24.591Z,19.20
2019-05-29T05:45:49.687Z,19.20
2019-05-29T05:48:15.929Z,19.30
2019-05-29T05:50:42.128Z,19.20
2019-05-29T05:53:08.365Z,19.30
2019-05-29T05:55:35.508Z,19.30
2019-05-29T05:58:00.816Z,19.30
2019-05-29T06:00:27.049Z,19.30
2019-05-29T06:02:53.273Z,19.30
2019-05-29T06:05:19.500Z,19.30
2019-05-29T06:07:45.748Z,19.30
2019-05-29T06:10:11.918Z,19.30
2019-05-29T06:12:38.662Z,19.30
2019-05-29T06:15:04.450Z,19.30
2019-05-29T06:17:30.657Z,19.40
2019-05-29T06:19:56.880Z,19.40
2019-05-29T06:22:23.100Z,19.40
2019-05-29T06:24:49.361Z,19.40
2019-05-29T06:27:16.792Z,19.50
2019-05-29T06:29:43.593Z,19.50
2019-05-29T06:32:09.281Z,19.50
2019-05-29T06:34:35.709Z,19.40
2019-05-29T06:37:01.715Z,19.50
2019-05-29T06:39:27.939Z,19.50
2019-05-29T06:41:54.177Z,19.50
2019-05-29T06:44:20.437Z,19.50
2019-05-29T06:46:46.664Z,19.50
2019-05-29T06:49:12.841Z,19.50
2019-05-29T06:51:39.282Z,19.50
2019-05-29T06:54:05.303Z,19.50
2019-05-29T06:56:31.544Z,19.50
2019-05-29T06:58:57.762Z,19.50
2019-05-29T07:01:23.984Z,19.50
2019-05-29T07:03:50.217Z,19.50
2019-05-29T07:06:16.447Z,19.50
2019-05-29T07:08:47.352Z,19.50
2019-05-29T07:11:08.906Z,19.50
2019-05-29T07:13:37.581Z,19.50
2019-05-29T07:16:01.365Z,19.50
2019-05-29T07:18:27.522Z,19.50
2019-05-29T07:20:53.689Z,19.50
2019-05-29T07:23:20.046Z,19.50
2019-05-29T07:25:47.450Z,19.50
2019-05-29T07:28:12.527Z,19.50
2019-05-29T07:30:39.158Z,19.50
2019-05-29T07:33:04.963Z,19.50
2019-05-29T07:35:31.204Z,19.50
2019-05-29T07:37:57.419Z,19.50
2019-05-29T07:40:23.663Z,19.50
2019-05-29T07:42:55.182Z,19.50
2019-05-29T07:45:16.107Z,19.50
2019-05-29T07:47:42.819Z,19.50
2019-05-29T07:50:08.577Z,19.50
2019-05-29T07:52:34.805Z,19.50
2019-05-29T07:55:01.016Z,19.50
2019-05-29T07:57:27.265Z,19.50
2019-05-29T07:59:53.481Z,19.50
2019-05-29T08:02:19.712Z,19.50
2019-05-29T08:04:47.096Z,19.60
2019-05-29T08:07:12.173Z,19.60
2019-05-29T08:09:39.323Z,19.60
2019-05-29T08:12:04.620Z,19.60
2019-05-29T08:14:30.860Z,19.60
2019-05-29T08:16:57.073Z,19.60
2019-05-29T08:19:23.230Z,19.60
2019-05-29T08:21:50.578Z,19.60
2019-05-29T08:24:15.765Z,19.60
2019-05-29T08:26:42.882Z,19.60
2019-05-29T08:29:08.216Z,19.60
2019-05-29T08:31:34.453Z,19.60
2019-05-29T08:34:00.682Z,19.60
2019-05-29T08:36:26.916Z,19.60
2019-05-29T08:38:53.134Z,19.60
2019-05-29T08:41:19.365Z,19.60
2019-05-29T08:43:46.871Z,19.60
2019-05-29T08:46:12.229Z,19.60
2019-05-29T08:48:38.450Z,19.60
2019-05-29T08:51:04.700Z,19.60
2019-05-29T08:53:30.926Z,19.60
2019-05-29T08:55:57.684Z,19.60
2019-05-29T08:58:24.216Z,19.60
2019-05-29T09:00:54.788Z,19.60
2019-05-29T09:03:17.056Z,19.60
2019-05-29T09:05:44.481Z,19.60
2019-05-29T09:08:09.529Z,19.60
2019-05-29T09:10:35.752Z,19.60
2019-05-29T09:13:05.138Z,19.60
2019-05-29T09:15:28.208Z,19.60
2019-05-29T09:17:54.436Z,19.60
2019-05-29T09:20:34.163Z,19.50
2019-05-29T09:22:46.896Z,19.50
2019-05-29T09:25:14.241Z,19.60
2019-05-29T09:27:39.353Z,19.60
2019-05-29T09:30:05.592Z,19.60
2019-05-29T09:32:48.285Z,19.60
2019-05-29T09:34:58.046Z,19.60
2019-05-29T09:37:24.587Z,19.60
2019-05-29T09:39:50.515Z,19.60
2019-05-29T09:42:18.286Z,19.60
2019-05-29T09:44:42.965Z,19.60
2019-05-29T09:47:09.198Z,19.60
2019-05-29T09:49:35.413Z,19.60
2019-05-29T09:52:02.054Z,19.60
2019-05-29T09:54:28.077Z,19.60
2019-05-29T09:56:56.161Z,19.60
2019-05-29T09:59:20.749Z,19.60
2019-05-29T10:01:46.989Z,19.60
2019-05-29T10:04:13.213Z,19.60
2019-05-29T10:06:39.443Z,19.60
2019-05-29T10:09:05.667Z,19.60
2019-05-29T10:11:31.897Z,19.60
2019-05-29T10:13:58.795Z,19.60
2019-05-29T10:16:24.359Z,19.60
2019-05-29T10:18:50.589Z,19.60
2019-05-29T10:21:16.824Z,19.60
2019-05-29T10:23:43.033Z,19.60
2019-05-29T10:26:09.267Z,19.60
2019-05-29T10:28:49.983Z,19.70
2019-05-29T10:31:04.078Z,19.70
2019-05-29T10:33:28.772Z,19.60
2019-05-29T10:35:55.489Z,19.60
2019-05-29T10:38:21.281Z,19.60
2019-05-29T10:41:04.161Z,19.70
2019-05-29T10:43:14.101Z,19.60
2019-05-29T10:45:40.327Z,19.60
2019-05-29T10:48:06.581Z,19.60
2019-05-29T10:50:34.018Z,19.60
2019-05-29T10:53:00.244Z,19.60
2019-05-29T10:55:26.473Z,19.70
2019-05-29T10:57:53.108Z,19.70
2019-05-29T11:00:18.948Z,19.70
2019-05-29T11:02:46.195Z,19.70
2019-05-29T11:05:11.385Z,19.70
2019-05-29T11:07:37.615Z,19.70
2019-05-29T11:10:03.841Z,19.70
2019-05-29T11:12:30.069Z,19.70
2019-05-29T11:14:56.975Z,19.70
2019-05-29T11:17:22.525Z,19.70
2019-05-29T11:19:49.281Z,19.70
2019-05-29T11:22:25.687Z,19.70
2019-05-29T11:24:42.033Z,19.70
2019-05-29T11:27:08.286Z,19.70
2019-05-29T11:29:34.489Z,19.70
2019-05-29T11:32:00.737Z,19.70
2019-05-29T11:34:28.173Z,19.70
2019-05-29T11:36:54.399Z,19.70
2019-05-29T11:39:20.621Z,19.70
2019-05-29T11:41:46.845Z,19.70
2019-05-29T11:44:13.086Z,19.70
2019-05-29T11:46:39.301Z,19.80
2019-05-29T11:49:05.538Z,19.70
2019-05-29T11:51:31.774Z,19.80
2019-05-29T11:53:57.994Z,19.80
2019-05-29T11:56:24.219Z,19.80
2019-05-29T11:58:50.806Z,19.80
2019-05-29T12:01:16.664Z,19.80
2019-05-29T12:04:08.096Z,19.80
2019-05-29T12:06:09.173Z,19.80
2019-05-29T12:08:35.361Z,19.80
2019-05-29T12:11:01.615Z,19.80
2019-05-29T12:13:27.829Z,19.80
2019-05-29T12:15:55.936Z,19.80
2019-05-29T12:18:24.344Z,19.80
2019-05-29T12:20:47.749Z,19.80
2019-05-29T12:23:25.693Z,19.80
2019-05-29T12:25:40.173Z,19.80
2019-05-29T12:28:06.405Z,19.80
2019-05-29T12:30:32.579Z,19.80
2019-05-29T12:32:59.158Z,19.80
2019-05-29T12:35:25.154Z,19.80
2019-05-29T12:37:51.320Z,19.80
2019-05-29T12:40:17.542Z,19.80
2019-05-29T12:42:45.092Z,19.80
2019-05-29T12:45:09.999Z,19.80
2019-05-29T12:47:36.226Z,19.80
2019-05-29T12:50:02.646Z,19.80
2019-05-29T12:52:28.680Z,19.80
2019-05-29T12:54:55.881Z,19.80
2019-05-29T12:57:23.527Z,19.80
2019-05-29T12:59:47.357Z,19.80
2019-05-29T13:02:13.525Z,19.80
2019-05-29T13:05:06.021Z,19.80
2019-05-29T13:07:06.458Z,19.80
2019-05-29T13:09:33.080Z,19.80
2019-05-29T13:12:00.420Z,19.80
2019-05-29T13:14:25.568Z,19.80
2019-05-29T13:16:51.795Z,19.90
2019-05-29T13:19:18.006Z,19.90
2019-05-29T13:21:44.228Z,19.90
2019-05-29T13:24:11.720Z,19.90
2019-05-29T13:26:36.673Z,19.90
2019-05-29T13:29:03.938Z,19.90
2019-05-29T13:31:29.139Z,19.90
2019-05-29T13:33:55.627Z,19.90
2019-05-29T13:36:21.594Z,19.90
2019-05-29T13:38:47.815Z,19.90
2019-05-29T13:41:14.051Z,19.90
2019-05-29T13:43:40.261Z,19.90
2019-05-29T13:46:06.503Z,19.90
2019-05-29T13:48:32.730Z,19.90
2019-05-29T13:50:59.852Z,19.90
2019-05-29T13:53:25.581Z,19.90
2019-05-29T13:55:51.828Z,19.90
2019-05-29T13:58:18.037Z,19.90
2019-05-29T14:00:44.269Z,19.90
2019-05-29T14:03:10.490Z,19.90
2019-05-29T14:05:36.688Z,19.90
2019-05-29T14:08:02.945Z,19.90
2019-05-29T14:10:29.178Z,19.90
2019-05-29T14:12:55.419Z,19.90
2019-05-29T14:15:21.647Z,19.90
2019-05-29T14:17:47.860Z,19.90
2019-05-29T14:20:14.073Z,20.00
2019-05-29T14:22:40.318Z,20.00
2019-05-29T14:25:07.461Z,20.00
2019-05-29T14:27:32.761Z,20.00
2019-05-29T14:29:59.002Z,20.00
2019-05-29T14:32:28.488Z,20.00
2019-05-29T14:34:52.696Z,20.00
2019-05-29T14:37:18.901Z,20.00
2019-05-29T14:39:45.140Z,20.00
2019-05-29T14:42:11.910Z,20.00
2019-05-29T14:44:37.630Z,20.00
2019-05-29T14:47:03.858Z,20.00
2019-05-29T14:49:30.038Z,20.00
2019-05-29T14:51:56.284Z,20.00
2019-05-29T14:54:22.491Z,20.00
2019-05-29T14:56:48.815Z,20.00
2019-05-29T14:59:15.361Z,20.00
2019-05-29T15:01:41.588Z,20.00
2019-05-29T15:04:07.831Z,20.00
2019-05-29T15:06:34.049Z,20.00
2019-05-29T15:09:00.282Z,20.00
2019-05-29T15:11:26.452Z,20.00
2019-05-29T15:13:52.720Z,20.00
2019-05-29T15:16:18.953Z,20.10
2019-05-29T15:18:45.185Z,20.00
2019-05-29T15:21:11.412Z,20.00
2019-05-29T15:23:37.649Z,20.00
2019-05-29T15:26:03.869Z,20.10
2019-05-29T15:28:30.128Z,20.00
2019-05-29T15:30:56.359Z,20.00
2019-05-29T15:33:23.789Z,20.00
2019-05-29T15:35:50.031Z,20.10
2019-05-29T15:38:17.143Z,20.10
2019-05-29T15:40:42.487Z,20.10
2019-05-29T15:43:08.838Z,20.10
2019-05-29T15:45:34.981Z,20.10
2019-05-29T15:48:01.168Z,20.10
2019-05-29T15:50:27.399Z,20.10
2019-05-29T15:52:53.625Z,20.10
2019-05-29T15:55:29.641Z,20.10
2019-05-29T16:08:58.988Z,20.20
2019-05-29T16:19:00.602Z,20.20
2019-05-29T16:21:30.793Z,20.10
2019-05-29T16:31:31.722Z,20.10
2019-05-29T16:33:58.104Z,20.10
2019-05-29T16:43:58.789Z,20.10
2019-05-29T16:54:00.717Z,20.10
2019-05-29T16:58:59.707Z,20.10
2019-05-29T17:03:59.547Z,20.10
2019-05-29T17:09:03.689Z,20.20
2019-05-29T17:14:01.501Z,20.10
2019-05-29T17:16:27.889Z,20.10
2019-05-29T17:18:54.355Z,20.10
2019-05-29T17:21:20.825Z,20.20
2019-05-29T17:28:50.089Z,20.20
2019-05-29T17:46:28.131Z,20.20
2019-05-29T17:48:54.539Z,20.20
2019-05-29T18:09:00.931Z,20.20
2019-05-29T18:14:05.109Z,20.20
2019-05-29T18:34:12.449Z,20.20
2019-05-29T19:02:00.828Z,20.10
2019-05-29T19:06:58.559Z,20.10
2019-05-29T19:12:00.867Z,20.10
2019-05-29T19:24:33.688Z,20.10
2019-05-29T20:02:23.524Z,20.10
2019-05-29T20:40:14.590Z,20.10
2019-05-29T20:45:12.777Z,20.10
2019-05-29T20:57:48.887Z,20.10
2019-05-29T21:05:19.230Z,20.10
2019-05-29T21:38:06.389Z,20.00
2019-05-29T21:45:36.717Z,19.90
2019-05-29T21:53:05.223Z,19.90
2019-05-29T22:00:37.882Z,19.90
2019-05-29T22:46:04.215Z,19.90
2019-05-29T23:08:45.607Z,19.90
2019-05-29T23:13:44.740Z,19.90
2019-05-29T23:18:43.549Z,19.90
2019-05-29T23:28:49.137Z,19.90
2019-05-29T23:33:47.331Z,19.90
2019-05-29T23:51:23.319Z,19.90
